sensor_id;sensor_type;location;lat;lon;timestamp;P1;durP1;ratioP1;P2;durP2;ratioP2
63201;SDS011;49296;48.188;11.566;2023-05-16T00:01:59;6.20;;;4.68;;
63201;SDS011;49296;48.188;11.566;2023-05-16T00:04:26;6.28;;;4.25;;
63201;SDS011;49296;48.188;11.566;2023-05-16T00:06:54;6.88;;;4.43;;
63201;SDS011;49296;48.188;11.566;2023-05-16T00:09:20;7.57;;;4.72;;
63201;SDS011;49296;48.188;11.566;2023-05-16T00:11:47;5.90;;;4.28;;
63201;SDS011;49296;48.188;11.566;2023-05-16T00:14:14;6.43;;;4.00;;
63201;SDS011;49296;48.188;11.566;2023-05-16T00:16:41;6.00;;;4.35;;
63201;SDS011;49296;48.188;11.566;2023-05-16T00:19:07;6.82;;;4.25;;
63201;SDS011;49296;48.188;11.566;2023-05-16T00:21:34;5.85;;;4.07;;
63201;SDS011;49296;48.188;11.566;2023-05-16T00:24:02;6.53;;;4.75;;
63201;SDS011;49296;48.188;11.566;2023-05-16T00:26:29;6.43;;;4.75;;
63201;SDS011;49296;48.188;11.566;2023-05-16T00:28:56;7.63;;;5.00;;
63201;SDS011;49296;48.188;11.566;2023-05-16T00:31:22;6.88;;;4.72;;
63201;SDS011;49296;48.188;11.566;2023-05-16T00:33:49;6.97;;;4.88;;
63201;SDS011;49296;48.188;11.566;2023-05-16T00:36:16;7.18;;;5.00;;
63201;SDS011;49296;48.188;11.566;2023-05-16T00:38:42;7.05;;;4.97;;
63201;SDS011;49296;48.188;11.566;2023-05-16T00:41:11;7.75;;;5.03;;
63201;SDS011;49296;48.188;11.566;2023-05-16T00:43:37;6.32;;;4.68;;
63201;SDS011;49296;48.188;11.566;2023-05-16T00:46:04;6.28;;;4.60;;
63201;SDS011;49296;48.188;11.566;2023-05-16T00:48:31;8.23;;;5.00;;
63201;SDS011;49296;48.188;11.566;2023-05-16T00:50:59;6.93;;;5.53;;
63201;SDS011;49296;48.188;11.566;2023-05-16T00:53:26;6.68;;;4.50;;
63201;SDS011;49296;48.188;11.566;2023-05-16T00:55:53;6.68;;;4.72;;
63201;SDS011;49296;48.188;11.566;2023-05-16T00:58:22;6.25;;;4.40;;
63201;SDS011;49296;48.188;11.566;2023-05-16T01:00:50;6.63;;;4.70;;
63201;SDS011;49296;48.188;11.566;2023-05-16T01:03:17;7.35;;;5.32;;
63201;SDS011;49296;48.188;11.566;2023-05-16T01:05:44;8.73;;;4.35;;
63201;SDS011;49296;48.188;11.566;2023-05-16T01:08:11;7.40;;;4.88;;
63201;SDS011;49296;48.188;11.566;2023-05-16T01:10:38;6.00;;;4.35;;
63201;SDS011;49296;48.188;11.566;2023-05-16T01:13:17;7.18;;;4.82;;
63201;SDS011;49296;48.188;11.566;2023-05-16T01:15:55;7.07;;;5.15;;
63201;SDS011;49296;48.188;11.566;2023-05-16T01:18:29;7.65;;;4.97;;
63201;SDS011;49296;48.188;11.566;2023-05-16T01:21:03;6.65;;;4.82;;
63201;SDS011;49296;48.188;11.566;2023-05-16T01:23:39;8.70;;;5.72;;
63201;SDS011;49296;48.188;11.566;2023-05-16T01:26:15;6.85;;;4.82;;
63201;SDS011;49296;48.188;11.566;2023-05-16T01:28:44;6.68;;;4.82;;
63201;SDS011;49296;48.188;11.566;2023-05-16T01:31:11;7.40;;;4.88;;
63201;SDS011;49296;48.188;11.566;2023-05-16T01:33:38;6.78;;;5.10;;
63201;SDS011;49296;48.188;11.566;2023-05-16T01:36:06;6.72;;;5.03;;
63201;SDS011;49296;48.188;11.566;2023-05-16T01:38:40;6.43;;;4.90;;
63201;SDS011;49296;48.188;11.566;2023-05-16T01:41:24;6.97;;;5.05;;
63201;SDS011;49296;48.188;11.566;2023-05-16T01:43:58;8.02;;;5.03;;
63201;SDS011;49296;48.188;11.566;2023-05-16T01:46:27;7.78;;;5.60;;
63201;SDS011;49296;48.188;11.566;2023-05-16T01:49:01;13.45;;;9.98;;
63201;SDS011;49296;48.188;11.566;2023-05-16T01:51:40;8.95;;;6.78;;
63201;SDS011;49296;48.188;11.566;2023-05-16T01:54:11;6.53;;;5.23;;
63201;SDS011;49296;48.188;11.566;2023-05-16T01:56:40;8.00;;;5.90;;
63201;SDS011;49296;48.188;11.566;2023-05-16T01:59:15;8.68;;;6.10;;
63201;SDS011;49296;48.188;11.566;2023-05-16T02:01:42;9.15;;;5.88;;
63201;SDS011;49296;48.188;11.566;2023-05-16T02:04:09;7.22;;;5.55;;
63201;SDS011;49296;48.188;11.566;2023-05-16T02:06:37;8.32;;;6.45;;
63201;SDS011;49296;48.188;11.566;2023-05-16T02:09:04;8.18;;;6.00;;
63201;SDS011;49296;48.188;11.566;2023-05-16T02:11:30;7.45;;;5.13;;
63201;SDS011;49296;48.188;11.566;2023-05-16T02:13:58;8.70;;;6.22;;
63201;SDS011;49296;48.188;11.566;2023-05-16T02:16:25;7.85;;;5.90;;
63201;SDS011;49296;48.188;11.566;2023-05-16T02:18:52;9.07;;;6.15;;
63201;SDS011;49296;48.188;11.566;2023-05-16T02:21:18;7.43;;;6.32;;
63201;SDS011;49296;48.188;11.566;2023-05-16T02:23:45;8.95;;;5.72;;
63201;SDS011;49296;48.188;11.566;2023-05-16T02:26:12;8.82;;;5.82;;
63201;SDS011;49296;48.188;11.566;2023-05-16T02:28:38;8.45;;;5.60;;
63201;SDS011;49296;48.188;11.566;2023-05-16T02:31:06;7.68;;;5.60;;
63201;SDS011;49296;48.188;11.566;2023-05-16T02:33:33;7.95;;;5.55;;
63201;SDS011;49296;48.188;11.566;2023-05-16T02:36:00;7.97;;;5.80;;
63201;SDS011;49296;48.188;11.566;2023-05-16T02:38:26;8.50;;;6.38;;
63201;SDS011;49296;48.188;11.566;2023-05-16T02:40:53;9.30;;;5.63;;
63201;SDS011;49296;48.188;11.566;2023-05-16T02:43:19;8.00;;;5.68;;
63201;SDS011;49296;48.188;11.566;2023-05-16T02:45:46;8.00;;;6.07;;
63201;SDS011;49296;48.188;11.566;2023-05-16T02:48:14;8.18;;;5.53;;
63201;SDS011;49296;48.188;11.566;2023-05-16T02:50:41;9.27;;;6.20;;
63201;SDS011;49296;48.188;11.566;2023-05-16T02:53:07;8.23;;;5.78;;
63201;SDS011;49296;48.188;11.566;2023-05-16T02:55:34;7.82;;;5.80;;
63201;SDS011;49296;48.188;11.566;2023-05-16T02:58:01;9.02;;;6.57;;
63201;SDS011;49296;48.188;11.566;2023-05-16T03:00:28;8.27;;;5.72;;
63201;SDS011;49296;48.188;11.566;2023-05-16T03:02:55;9.30;;;6.50;;
63201;SDS011;49296;48.188;11.566;2023-05-16T03:05:23;8.07;;;6.00;;
63201;SDS011;49296;48.188;11.566;2023-05-16T03:07:50;8.57;;;5.57;;
63201;SDS011;49296;48.188;11.566;2023-05-16T03:10:16;8.07;;;6.07;;
63201;SDS011;49296;48.188;11.566;2023-05-16T03:12:43;8.63;;;6.50;;
63201;SDS011;49296;48.188;11.566;2023-05-16T03:15:10;9.00;;;6.75;;
63201;SDS011;49296;48.188;11.566;2023-05-16T03:17:37;8.75;;;5.78;;
63201;SDS011;49296;48.188;11.566;2023-05-16T03:20:04;7.95;;;6.03;;
63201;SDS011;49296;48.188;11.566;2023-05-16T03:22:34;9.13;;;6.40;;
63201;SDS011;49296;48.188;11.566;2023-05-16T03:25:01;7.22;;;5.68;;
63201;SDS011;49296;48.188;11.566;2023-05-16T03:27:28;8.40;;;6.60;;
63201;SDS011;49296;48.188;11.566;2023-05-16T03:29:55;9.38;;;6.70;;
63201;SDS011;49296;48.188;11.566;2023-05-16T03:32:21;9.02;;;5.90;;
63201;SDS011;49296;48.188;11.566;2023-05-16T03:34:48;10.30;;;6.72;;
63201;SDS011;49296;48.188;11.566;2023-05-16T03:37:14;9.65;;;6.50;;
63201;SDS011;49296;48.188;11.566;2023-05-16T03:39:42;8.68;;;6.70;;
63201;SDS011;49296;48.188;11.566;2023-05-16T03:42:09;9.25;;;6.95;;
63201;SDS011;49296;48.188;11.566;2023-05-16T03:44:36;9.38;;;7.00;;
63201;SDS011;49296;48.188;11.566;2023-05-16T03:47:02;9.55;;;6.85;;
63201;SDS011;49296;48.188;11.566;2023-05-16T03:49:30;9.45;;;6.72;;
63201;SDS011;49296;48.188;11.566;2023-05-16T03:51:57;10.32;;;7.65;;
63201;SDS011;49296;48.188;11.566;2023-05-16T03:54:23;9.95;;;6.75;;
63201;SDS011;49296;48.188;11.566;2023-05-16T03:56:51;11.70;;;7.93;;
63201;SDS011;49296;48.188;11.566;2023-05-16T03:59:18;9.70;;;7.32;;
63201;SDS011;49296;48.188;11.566;2023-05-16T04:01:44;10.20;;;7.05;;
63201;SDS011;49296;48.188;11.566;2023-05-16T04:04:11;9.75;;;7.03;;
63201;SDS011;49296;48.188;11.566;2023-05-16T04:06:38;13.38;;;7.55;;
63201;SDS011;49296;48.188;11.566;2023-05-16T04:09:05;11.32;;;8.20;;
63201;SDS011;49296;48.188;11.566;2023-05-16T04:11:31;11.07;;;7.70;;
63201;SDS011;49296;48.188;11.566;2023-05-16T04:14:00;9.95;;;6.72;;
63201;SDS011;49296;48.188;11.566;2023-05-16T04:16:26;9.57;;;7.43;;
63201;SDS011;49296;48.188;11.566;2023-05-16T04:18:53;10.07;;;7.60;;
63201;SDS011;49296;48.188;11.566;2023-05-16T04:21:20;10.23;;;6.97;;
63201;SDS011;49296;48.188;11.566;2023-05-16T04:23:47;8.85;;;6.57;;
63201;SDS011;49296;48.188;11.566;2023-05-16T04:26:14;10.27;;;7.40;;
63201;SDS011;49296;48.188;11.566;2023-05-16T04:28:40;11.32;;;7.80;;
63201;SDS011;49296;48.188;11.566;2023-05-16T04:31:08;10.63;;;7.60;;
63201;SDS011;49296;48.188;11.566;2023-05-16T04:33:35;11.88;;;7.38;;
63201;SDS011;49296;48.188;11.566;2023-05-16T04:36:02;10.65;;;7.82;;
63201;SDS011;49296;48.188;11.566;2023-05-16T04:38:29;11.38;;;7.45;;
63201;SDS011;49296;48.188;11.566;2023-05-16T04:40:56;11.10;;;7.28;;
63201;SDS011;49296;48.188;11.566;2023-05-16T04:43:23;9.85;;;7.38;;
63201;SDS011;49296;48.188;11.566;2023-05-16T04:45:50;11.95;;;8.00;;
63201;SDS011;49296;48.188;11.566;2023-05-16T04:48:19;11.32;;;8.32;;
63201;SDS011;49296;48.188;11.566;2023-05-16T04:50:46;11.98;;;7.70;;
63201;SDS011;49296;48.188;11.566;2023-05-16T04:53:12;10.57;;;7.30;;
63201;SDS011;49296;48.188;11.566;2023-05-16T04:55:39;10.73;;;7.53;;
63201;SDS011;49296;48.188;11.566;2023-05-16T04:58:06;11.27;;;8.68;;
63201;SDS011;49296;48.188;11.566;2023-05-16T05:00:32;10.98;;;7.32;;
63201;SDS011;49296;48.188;11.566;2023-05-16T05:02:59;12.85;;;8.88;;
63201;SDS011;49296;48.188;11.566;2023-05-16T05:05:28;11.05;;;7.95;;
63201;SDS011;49296;48.188;11.566;2023-05-16T05:07:56;12.95;;;8.50;;
63201;SDS011;49296;48.188;11.566;2023-05-16T05:10:24;11.77;;;8.25;;
63201;SDS011;49296;48.188;11.566;2023-05-16T05:12:51;14.02;;;8.65;;
63201;SDS011;49296;48.188;11.566;2023-05-16T05:15:18;11.93;;;8.05;;
63201;SDS011;49296;48.188;11.566;2023-05-16T05:17:45;11.55;;;8.10;;
63201;SDS011;49296;48.188;11.566;2023-05-16T05:20:11;13.07;;;8.48;;
63201;SDS011;49296;48.188;11.566;2023-05-16T05:22:39;11.43;;;8.50;;
63201;SDS011;49296;48.188;11.566;2023-05-16T05:25:06;12.48;;;8.25;;
63201;SDS011;49296;48.188;11.566;2023-05-16T05:27:33;11.02;;;8.27;;
63201;SDS011;49296;48.188;11.566;2023-05-16T05:30:00;11.80;;;8.23;;
63201;SDS011;49296;48.188;11.566;2023-05-16T05:32:27;11.45;;;8.25;;
63201;SDS011;49296;48.188;11.566;2023-05-16T05:34:54;11.90;;;8.27;;
63201;SDS011;49296;48.188;11.566;2023-05-16T05:37:20;13.75;;;9.55;;
63201;SDS011;49296;48.188;11.566;2023-05-16T05:39:48;12.20;;;8.48;;
63201;SDS011;49296;48.188;11.566;2023-05-16T05:42:15;12.43;;;8.98;;
63201;SDS011;49296;48.188;11.566;2023-05-16T05:44:42;11.25;;;8.52;;
63201;SDS011;49296;48.188;11.566;2023-05-16T05:47:08;12.13;;;8.90;;
63201;SDS011;49296;48.188;11.566;2023-05-16T05:49:35;11.63;;;8.95;;
63201;SDS011;49296;48.188;11.566;2023-05-16T05:52:02;12.45;;;9.25;;
63201;SDS011;49296;48.188;11.566;2023-05-16T05:54:29;13.10;;;9.25;;
63201;SDS011;49296;48.188;11.566;2023-05-16T05:56:57;11.85;;;8.82;;
63201;SDS011;49296;48.188;11.566;2023-05-16T05:59:24;14.43;;;9.32;;
63201;SDS011;49296;48.188;11.566;2023-05-16T06:01:51;11.40;;;8.30;;
63201;SDS011;49296;48.188;11.566;2023-05-16T06:04:18;14.13;;;9.30;;
63201;SDS011;49296;48.188;11.566;2023-05-16T06:06:45;13.07;;;9.07;;
63201;SDS011;49296;48.188;11.566;2023-05-16T06:09:11;16.33;;;10.70;;
63201;SDS011;49296;48.188;11.566;2023-05-16T06:11:39;15.20;;;10.52;;
63201;SDS011;49296;48.188;11.566;2023-05-16T06:14:07;21.63;;;13.40;;
63201;SDS011;49296;48.188;11.566;2023-05-16T06:16:35;15.98;;;10.73;;
63201;SDS011;49296;48.188;11.566;2023-05-16T06:19:03;22.13;;;11.55;;
63201;SDS011;49296;48.188;11.566;2023-05-16T06:21:33;17.60;;;10.52;;
63201;SDS011;49296;48.188;11.566;2023-05-16T06:24:00;14.18;;;10.32;;
63201;SDS011;49296;48.188;11.566;2023-05-16T06:26:27;15.35;;;9.90;;
63201;SDS011;49296;48.188;11.566;2023-05-16T06:28:54;14.90;;;10.82;;
63201;SDS011;49296;48.188;11.566;2023-05-16T06:31:21;14.48;;;10.13;;
63201;SDS011;49296;48.188;11.566;2023-05-16T06:33:48;13.65;;;9.73;;
63201;SDS011;49296;48.188;11.566;2023-05-16T06:36:15;15.60;;;10.48;;
63201;SDS011;49296;48.188;11.566;2023-05-16T06:38:41;14.10;;;10.13;;
63201;SDS011;49296;48.188;11.566;2023-05-16T06:41:08;13.95;;;9.85;;
63201;SDS011;49296;48.188;11.566;2023-05-16T06:43:35;15.88;;;12.02;;
63201;SDS011;49296;48.188;11.566;2023-05-16T06:46:01;13.65;;;9.93;;
63201;SDS011;49296;48.188;11.566;2023-05-16T06:48:30;14.50;;;10.05;;
63201;SDS011;49296;48.188;11.566;2023-05-16T06:50:56;13.07;;;9.57;;
63201;SDS011;49296;48.188;11.566;2023-05-16T06:53:23;14.02;;;10.15;;
63201;SDS011;49296;48.188;11.566;2023-05-16T06:55:50;13.38;;;9.95;;
63201;SDS011;49296;48.188;11.566;2023-05-16T06:58:17;14.10;;;9.85;;
63201;SDS011;49296;48.188;11.566;2023-05-16T07:00:43;14.70;;;9.10;;
63201;SDS011;49296;48.188;11.566;2023-05-16T07:03:10;13.55;;;10.48;;
63201;SDS011;49296;48.188;11.566;2023-05-16T07:05:38;12.23;;;9.98;;
63201;SDS011;49296;48.188;11.566;2023-05-16T07:08:07;12.85;;;10.02;;
63201;SDS011;49296;48.188;11.566;2023-05-16T07:10:34;14.23;;;10.27;;
63201;SDS011;49296;48.188;11.566;2023-05-16T07:13:00;12.88;;;9.57;;
63201;SDS011;49296;48.188;11.566;2023-05-16T07:15:29;15.15;;;11.05;;
63201;SDS011;49296;48.188;11.566;2023-05-16T07:17:55;17.23;;;12.05;;
63201;SDS011;49296;48.188;11.566;2023-05-16T07:20:22;13.88;;;9.90;;
63201;SDS011;49296;48.188;11.566;2023-05-16T07:22:50;15.00;;;10.38;;
63201;SDS011;49296;48.188;11.566;2023-05-16T07:25:17;13.93;;;10.20;;
63201;SDS011;49296;48.188;11.566;2023-05-16T07:27:44;13.52;;;10.35;;
63201;SDS011;49296;48.188;11.566;2023-05-16T07:30:11;13.88;;;10.43;;
63201;SDS011;49296;48.188;11.566;2023-05-16T07:32:39;13.80;;;10.50;;
63201;SDS011;49296;48.188;11.566;2023-05-16T07:35:05;14.65;;;10.68;;
63201;SDS011;49296;48.188;11.566;2023-05-16T07:37:33;12.10;;;9.77;;
63201;SDS011;49296;48.188;11.566;2023-05-16T07:40:02;12.43;;;10.13;;
63201;SDS011;49296;48.188;11.566;2023-05-16T07:42:30;12.88;;;9.30;;
63201;SDS011;49296;48.188;11.566;2023-05-16T07:44:56;13.88;;;10.85;;
63201;SDS011;49296;48.188;11.566;2023-05-16T07:47:23;14.32;;;10.10;;
63201;SDS011;49296;48.188;11.566;2023-05-16T07:49:49;13.23;;;10.63;;
63201;SDS011;49296;48.188;11.566;2023-05-16T07:52:16;13.07;;;10.02;;
63201;SDS011;49296;48.188;11.566;2023-05-16T07:54:43;17.70;;;10.70;;
63201;SDS011;49296;48.188;11.566;2023-05-16T07:57:13;13.98;;;10.00;;
63201;SDS011;49296;48.188;11.566;2023-05-16T07:59:40;14.32;;;10.90;;
63201;SDS011;49296;48.188;11.566;2023-05-16T08:02:07;17.10;;;11.73;;
63201;SDS011;49296;48.188;11.566;2023-05-16T08:04:34;13.52;;;10.38;;
63201;SDS011;49296;48.188;11.566;2023-05-16T08:07:01;13.85;;;10.65;;
63201;SDS011;49296;48.188;11.566;2023-05-16T08:09:28;15.20;;;11.00;;
63201;SDS011;49296;48.188;11.566;2023-05-16T08:11:55;14.75;;;11.15;;
63201;SDS011;49296;48.188;11.566;2023-05-16T08:14:23;13.45;;;10.68;;
63201;SDS011;49296;48.188;11.566;2023-05-16T08:16:50;13.45;;;10.32;;
63201;SDS011;49296;48.188;11.566;2023-05-16T08:19:16;14.20;;;10.07;;
63201;SDS011;49296;48.188;11.566;2023-05-16T08:21:43;17.50;;;10.90;;
63201;SDS011;49296;48.188;11.566;2023-05-16T08:24:09;13.40;;;9.90;;
63201;SDS011;49296;48.188;11.566;2023-05-16T08:26:36;15.35;;;11.73;;
63201;SDS011;49296;48.188;11.566;2023-05-16T08:29:03;15.05;;;11.65;;
63201;SDS011;49296;48.188;11.566;2023-05-16T08:31:31;12.30;;;9.82;;
63201;SDS011;49296;48.188;11.566;2023-05-16T08:33:57;13.25;;;10.10;;
63201;SDS011;49296;48.188;11.566;2023-05-16T08:36:25;15.38;;;11.88;;
63201;SDS011;49296;48.188;11.566;2023-05-16T08:38:53;14.15;;;11.07;;
63201;SDS011;49296;48.188;11.566;2023-05-16T08:41:20;16.95;;;12.32;;
63201;SDS011;49296;48.188;11.566;2023-05-16T08:43:47;14.18;;;11.07;;
63201;SDS011;49296;48.188;11.566;2023-05-16T08:46:13;15.45;;;11.63;;
63201;SDS011;49296;48.188;11.566;2023-05-16T08:48:45;14.60;;;11.38;;
63201;SDS011;49296;48.188;11.566;2023-05-16T08:51:12;15.00;;;11.80;;
63201;SDS011;49296;48.188;11.566;2023-05-16T08:53:44;14.70;;;11.52;;
63201;SDS011;49296;48.188;11.566;2023-05-16T08:56:15;13.52;;;10.30;;
63201;SDS011;49296;48.188;11.566;2023-05-16T08:58:43;13.50;;;10.48;;
63201;SDS011;49296;48.188;11.566;2023-05-16T09:01:10;15.18;;;11.85;;
63201;SDS011;49296;48.188;11.566;2023-05-16T09:03:37;13.73;;;9.60;;
63201;SDS011;49296;48.188;11.566;2023-05-16T09:06:06;14.98;;;11.43;;
63201;SDS011;49296;48.188;11.566;2023-05-16T09:08:32;14.43;;;11.27;;
63201;SDS011;49296;48.188;11.566;2023-05-16T09:10:59;15.05;;;11.35;;
63201;SDS011;49296;48.188;11.566;2023-05-16T09:13:27;14.32;;;11.05;;
63201;SDS011;49296;48.188;11.566;2023-05-16T09:16:09;15.20;;;11.35;;
63201;SDS011;49296;48.188;11.566;2023-05-16T09:18:37;16.63;;;11.32;;
63201;SDS011;49296;48.188;11.566;2023-05-16T09:21:06;15.43;;;11.20;;
63201;SDS011;49296;48.188;11.566;2023-05-16T09:23:32;15.52;;;12.85;;
63201;SDS011;49296;48.188;11.566;2023-05-16T09:25:59;16.17;;;12.90;;
63201;SDS011;49296;48.188;11.566;2023-05-16T09:28:26;13.52;;;11.30;;
63201;SDS011;49296;48.188;11.566;2023-05-16T09:30:53;15.77;;;12.50;;
63201;SDS011;49296;48.188;11.566;2023-05-16T09:33:23;15.60;;;12.25;;
63201;SDS011;49296;48.188;11.566;2023-05-16T09:35:55;16.90;;;12.75;;
63201;SDS011;49296;48.188;11.566;2023-05-16T09:38:24;16.88;;;11.85;;
63201;SDS011;49296;48.188;11.566;2023-05-16T09:40:52;17.70;;;12.93;;
63201;SDS011;49296;48.188;11.566;2023-05-16T09:43:21;16.60;;;12.68;;
63201;SDS011;49296;48.188;11.566;2023-05-16T09:45:51;15.18;;;12.07;;
63201;SDS011;49296;48.188;11.566;2023-05-16T09:48:19;16.83;;;13.50;;
63201;SDS011;49296;48.188;11.566;2023-05-16T09:50:48;16.63;;;12.18;;
63201;SDS011;49296;48.188;11.566;2023-05-16T09:53:17;15.18;;;11.52;;
63201;SDS011;49296;48.188;11.566;2023-05-16T09:55:45;13.77;;;11.30;;
63201;SDS011;49296;48.188;11.566;2023-05-16T09:58:15;14.90;;;10.90;;
63201;SDS011;49296;48.188;11.566;2023-05-16T10:00:43;14.98;;;12.35;;
63201;SDS011;49296;48.188;11.566;2023-05-16T10:03:11;13.63;;;11.73;;
63201;SDS011;49296;48.188;11.566;2023-05-16T10:05:38;14.52;;;12.27;;
63201;SDS011;49296;48.188;11.566;2023-05-16T10:08:05;13.90;;;11.45;;
63201;SDS011;49296;48.188;11.566;2023-05-16T10:10:34;16.13;;;11.50;;
63201;SDS011;49296;48.188;11.566;2023-05-16T10:13:05;15.25;;;12.13;;
63201;SDS011;49296;48.188;11.566;2023-05-16T10:15:34;16.17;;;12.60;;
63201;SDS011;49296;48.188;11.566;2023-05-16T10:18:02;14.20;;;12.05;;
63201;SDS011;49296;48.188;11.566;2023-05-16T10:20:32;14.25;;;11.73;;
63201;SDS011;49296;48.188;11.566;2023-05-16T10:22:59;15.68;;;13.38;;
63201;SDS011;49296;48.188;11.566;2023-05-16T10:25:27;16.83;;;13.23;;
63201;SDS011;49296;48.188;11.566;2023-05-16T10:27:57;17.60;;;13.23;;
63201;SDS011;49296;48.188;11.566;2023-05-16T10:30:26;16.30;;;12.95;;
63201;SDS011;49296;48.188;11.566;2023-05-16T10:32:52;14.68;;;12.55;;
63201;SDS011;49296;48.188;11.566;2023-05-16T10:35:21;16.52;;;14.02;;
63201;SDS011;49296;48.188;11.566;2023-05-16T10:37:48;16.23;;;12.98;;
63201;SDS011;49296;48.188;11.566;2023-05-16T10:40:16;15.57;;;13.10;;
63201;SDS011;49296;48.188;11.566;2023-05-16T10:42:46;19.25;;;15.25;;
63201;SDS011;49296;48.188;11.566;2023-05-16T10:45:21;18.88;;;14.82;;
63201;SDS011;49296;48.188;11.566;2023-05-16T10:47:53;17.50;;;13.80;;
63201;SDS011;49296;48.188;11.566;2023-05-16T10:50:30;17.05;;;14.32;;
63201;SDS011;49296;48.188;11.566;2023-05-16T10:53:13;17.17;;;14.05;;
63201;SDS011;49296;48.188;11.566;2023-05-16T10:55:47;18.23;;;14.13;;
63201;SDS011;49296;48.188;11.566;2023-05-16T10:58:22;18.00;;;14.57;;
63201;SDS011;49296;48.188;11.566;2023-05-16T11:00:49;18.25;;;14.50;;
63201;SDS011;49296;48.188;11.566;2023-05-16T11:04:03;17.20;;;13.52;;
63201;SDS011;49296;48.188;11.566;2023-05-16T11:06:34;19.15;;;15.10;;
63201;SDS011;49296;48.188;11.566;2023-05-16T11:09:17;19.23;;;13.30;;
63201;SDS011;49296;48.188;11.566;2023-05-16T11:11:54;18.45;;;14.63;;
63201;SDS011;49296;48.188;11.566;2023-05-16T11:14:23;19.42;;;14.85;;
63201;SDS011;49296;48.188;11.566;2023-05-16T11:16:58;20.10;;;15.18;;
63201;SDS011;49296;48.188;11.566;2023-05-16T11:19:31;20.60;;;16.17;;
63201;SDS011;49296;48.188;11.566;2023-05-16T11:22:03;19.50;;;14.73;;
63201;SDS011;49296;48.188;11.566;2023-05-16T11:24:34;18.38;;;13.80;;
63201;SDS011;49296;48.188;11.566;2023-05-16T11:27:03;19.98;;;14.10;;
63201;SDS011;49296;48.188;11.566;2023-05-16T11:29:30;19.15;;;14.60;;
63201;SDS011;49296;48.188;11.566;2023-05-16T11:31:57;18.73;;;14.85;;
63201;SDS011;49296;48.188;11.566;2023-05-16T11:34:25;19.63;;;15.48;;
63201;SDS011;49296;48.188;11.566;2023-05-16T11:36:53;18.00;;;13.80;;
63201;SDS011;49296;48.188;11.566;2023-05-16T11:39:21;19.25;;;15.20;;
63201;SDS011;49296;48.188;11.566;2023-05-16T11:41:49;19.40;;;14.55;;
63201;SDS011;49296;48.188;11.566;2023-05-16T11:44:15;17.58;;;14.20;;
63201;SDS011;49296;48.188;11.566;2023-05-16T11:46:42;21.50;;;15.38;;
63201;SDS011;49296;48.188;11.566;2023-05-16T11:49:09;19.13;;;15.80;;
63201;SDS011;49296;48.188;11.566;2023-05-16T11:51:37;19.10;;;14.98;;
63201;SDS011;49296;48.188;11.566;2023-05-16T11:54:05;20.85;;;16.30;;
63201;SDS011;49296;48.188;11.566;2023-05-16T11:56:34;18.95;;;15.13;;
63201;SDS011;49296;48.188;11.566;2023-05-16T11:59:01;22.30;;;15.88;;
63201;SDS011;49296;48.188;11.566;2023-05-16T12:01:30;18.95;;;15.15;;
63201;SDS011;49296;48.188;11.566;2023-05-16T12:06:25;18.98;;;15.23;;
63201;SDS011;49296;48.188;11.566;2023-05-16T12:08:53;21.50;;;16.92;;
63201;SDS011;49296;48.188;11.566;2023-05-16T12:11:23;19.48;;;16.13;;
63201;SDS011;49296;48.188;11.566;2023-05-16T12:13:49;21.40;;;16.70;;
63201;SDS011;49296;48.188;11.566;2023-05-16T12:16:16;21.55;;;17.23;;
63201;SDS011;49296;48.188;11.566;2023-05-16T12:18:43;20.10;;;16.02;;
63201;SDS011;49296;48.188;11.566;2023-05-16T12:21:11;18.55;;;14.65;;
63201;SDS011;49296;48.188;11.566;2023-05-16T12:23:38;19.60;;;15.63;;
63201;SDS011;49296;48.188;11.566;2023-05-16T12:26:07;18.55;;;15.18;;
63201;SDS011;49296;48.188;11.566;2023-05-16T12:28:35;17.63;;;14.68;;
63201;SDS011;49296;48.188;11.566;2023-05-16T12:31:03;19.45;;;15.80;;
63201;SDS011;49296;48.188;11.566;2023-05-16T12:33:37;18.75;;;15.25;;
63201;SDS011;49296;48.188;11.566;2023-05-16T12:36:04;18.75;;;15.73;;
63201;SDS011;49296;48.188;11.566;2023-05-16T12:38:39;19.95;;;17.25;;
63201;SDS011;49296;48.188;11.566;2023-05-16T12:41:06;21.70;;;16.35;;
63201;SDS011;49296;48.188;11.566;2023-05-16T12:43:35;16.48;;;14.38;;
63201;SDS011;49296;48.188;11.566;2023-05-16T12:46:02;20.80;;;16.88;;
63201;SDS011;49296;48.188;11.566;2023-05-16T12:48:36;19.42;;;15.55;;
63201;SDS011;49296;48.188;11.566;2023-05-16T12:51:10;18.35;;;15.10;;
63201;SDS011;49296;48.188;11.566;2023-05-16T12:53:42;19.10;;;15.38;;
63201;SDS011;49296;48.188;11.566;2023-05-16T12:58:37;20.38;;;15.27;;
63201;SDS011;49296;48.188;11.566;2023-05-16T13:01:05;19.10;;;15.40;;
63201;SDS011;49296;48.188;11.566;2023-05-16T13:03:32;18.88;;;15.55;;
63201;SDS011;49296;48.188;11.566;2023-05-16T13:06:00;19.10;;;15.70;;
63201;SDS011;49296;48.188;11.566;2023-05-16T13:08:27;18.63;;;15.63;;
63201;SDS011;49296;48.188;11.566;2023-05-16T13:10:55;18.35;;;15.75;;
63201;SDS011;49296;48.188;11.566;2023-05-16T13:13:22;18.38;;;15.27;;
63201;SDS011;49296;48.188;11.566;2023-05-16T13:15:50;20.08;;;16.83;;
63201;SDS011;49296;48.188;11.566;2023-05-16T13:18:16;19.10;;;15.48;;
63201;SDS011;49296;48.188;11.566;2023-05-16T13:20:43;18.55;;;15.48;;
63201;SDS011;49296;48.188;11.566;2023-05-16T13:23:10;19.17;;;15.73;;
63201;SDS011;49296;48.188;11.566;2023-05-16T13:25:37;15.32;;;13.18;;
63201;SDS011;49296;48.188;11.566;2023-05-16T13:28:04;14.55;;;11.57;;
63201;SDS011;49296;48.188;11.566;2023-05-16T13:30:31;13.60;;;11.20;;
63201;SDS011;49296;48.188;11.566;2023-05-16T13:32:59;12.43;;;10.88;;
63201;SDS011;49296;48.188;11.566;2023-05-16T13:35:25;17.85;;;12.55;;
63201;SDS011;49296;48.188;11.566;2023-05-16T13:37:52;15.13;;;11.65;;
63201;SDS011;49296;48.188;11.566;2023-05-16T13:40:19;13.98;;;12.07;;
63201;SDS011;49296;48.188;11.566;2023-05-16T13:42:46;15.63;;;11.93;;
63201;SDS011;49296;48.188;11.566;2023-05-16T13:45:13;13.43;;;11.23;;
63201;SDS011;49296;48.188;11.566;2023-05-16T13:47:39;12.25;;;10.18;;
63201;SDS011;49296;48.188;11.566;2023-05-16T13:50:08;10.85;;;8.93;;
63201;SDS011;49296;48.188;11.566;2023-05-16T13:52:36;12.48;;;9.27;;
63201;SDS011;49296;48.188;11.566;2023-05-16T13:55:04;11.15;;;8.27;;
63201;SDS011;49296;48.188;11.566;2023-05-16T13:57:32;10.57;;;8.30;;
63201;SDS011;49296;48.188;11.566;2023-05-16T13:59:59;9.40;;;7.25;;
63201;SDS011;49296;48.188;11.566;2023-05-16T14:02:25;10.60;;;7.32;;
63201;SDS011;49296;48.188;11.566;2023-05-16T14:04:52;8.57;;;7.15;;
63201;SDS011;49296;48.188;11.566;2023-05-16T14:07:20;8.70;;;6.85;;
63201;SDS011;49296;48.188;11.566;2023-05-16T14:09:47;9.10;;;7.93;;
63201;SDS011;49296;48.188;11.566;2023-05-16T14:12:13;8.18;;;6.57;;
63201;SDS011;49296;48.188;11.566;2023-05-16T14:14:40;9.23;;;7.13;;
63201;SDS011;49296;48.188;11.566;2023-05-16T14:17:07;15.25;;;8.05;;
63201;SDS011;49296;48.188;11.566;2023-05-16T14:19:33;8.77;;;7.55;;
63201;SDS011;49296;48.188;11.566;2023-05-16T14:22:00;9.90;;;7.35;;
63201;SDS011;49296;48.188;11.566;2023-05-16T14:24:28;10.85;;;8.02;;
63201;SDS011;49296;48.188;11.566;2023-05-16T14:26:55;8.65;;;7.65;;
63201;SDS011;49296;48.188;11.566;2023-05-16T14:29:22;9.65;;;7.25;;